sensor_id;sensor_type;location;lat;lon;timestamp;P1;durP1;ratioP1;P2;durP2;ratioP2
66826;SDS011;53727;45.242;19.796;2022-11-14T00:01:43;58.40;;;34.92;;
66826;SDS011;53727;45.242;19.796;2022-11-14T00:04:09;63.60;;;35.60;;
66826;SDS011;53727;45.242;19.796;2022-11-14T00:06:35;47.75;;;33.65;;
66826;SDS011;53727;45.242;19.796;2022-11-14T00:09:01;54.25;;;33.08;;
66826;SDS011;53727;45.242;19.796;2022-11-14T00:11:27;53.38;;;34.17;;
66826;SDS011;53727;45.242;19.796;2022-11-14T00:13:54;50.03;;;33.10;;
66826;SDS011;53727;45.242;19.796;2022-11-14T00:16:20;49.22;;;30.75;;
66826;SDS011;53727;45.242;19.796;2022-11-14T00:18:46;53.90;;;35.90;;
66826;SDS011;53727;45.242;19.796;2022-11-14T00:21:12;55.53;;;37.47;;
66826;SDS011;53727;45.242;19.796;2022-11-14T00:23:38;52.88;;;36.38;;
66826;SDS011;53727;45.242;19.796;2022-11-14T00:26:04;50.28;;;34.42;;
66826;SDS011;53727;45.242;19.796;2022-11-14T00:28:30;43.65;;;31.30;;
66826;SDS011;53727;45.242;19.796;2022-11-14T00:30:56;44.47;;;31.95;;
66826;SDS011;53727;45.242;19.796;2022-11-14T00:33:22;45.10;;;32.15;;
66826;SDS011;53727;45.242;19.796;2022-11-14T00:35:49;54.85;;;36.25;;
66826;SDS011;53727;45.242;19.796;2022-11-14T00:38:15;65.28;;;40.28;;
66826;SDS011;53727;45.242;19.796;2022-11-14T00:40:41;68.78;;;44.53;;
66826;SDS011;53727;45.242;19.796;2022-11-14T00:43:07;66.05;;;44.85;;
66826;SDS011;53727;45.242;19.796;2022-11-14T00:45:33;68.90;;;43.88;;
66826;SDS011;53727;45.242;19.796;2022-11-14T00:47:59;63.75;;;43.38;;
66826;SDS011;53727;45.242;19.796;2022-11-14T00:50:25;62.20;;;42.97;;
66826;SDS011;53727;45.242;19.796;2022-11-14T00:52:51;61.38;;;40.65;;
66826;SDS011;53727;45.242;19.796;2022-11-14T00:55:17;58.10;;;39.58;;
66826;SDS011;53727;45.242;19.796;2022-11-14T00:57:43;67.10;;;43.40;;
66826;SDS011;53727;45.242;19.796;2022-11-14T01:00:10;62.85;;;41.15;;
66826;SDS011;53727;45.242;19.796;2022-11-14T01:02:38;60.25;;;40.78;;
66826;SDS011;53727;45.242;19.796;2022-11-14T01:05:04;59.22;;;41.28;;
66826;SDS011;53727;45.242;19.796;2022-11-14T01:07:30;63.47;;;42.83;;
66826;SDS011;53727;45.242;19.796;2022-11-14T01:09:56;61.28;;;41.35;;
66826;SDS011;53727;45.242;19.796;2022-11-14T01:12:22;61.25;;;42.35;;
66826;SDS011;53727;45.242;19.796;2022-11-14T01:14:48;61.33;;;42.67;;
66826;SDS011;53727;45.242;19.796;2022-11-14T01:17:14;59.58;;;42.03;;
66826;SDS011;53727;45.242;19.796;2022-11-14T01:19:40;65.70;;;44.63;;
66826;SDS011;53727;45.242;19.796;2022-11-14T01:22:06;82.35;;;52.83;;
66826;SDS011;53727;45.242;19.796;2022-11-14T01:24:33;70.18;;;46.58;;
66826;SDS011;53727;45.242;19.796;2022-11-14T01:26:59;66.68;;;46.10;;
66826;SDS011;53727;45.242;19.796;2022-11-14T01:29:25;60.28;;;41.75;;
66826;SDS011;53727;45.242;19.796;2022-11-14T01:31:51;57.92;;;38.67;;
66826;SDS011;53727;45.242;19.796;2022-11-14T01:34:17;57.85;;;38.80;;
66826;SDS011;53727;45.242;19.796;2022-11-14T01:36:43;54.95;;;38.15;;
66826;SDS011;53727;45.242;19.796;2022-11-14T01:39:09;49.53;;;35.95;;
66826;SDS011;53727;45.242;19.796;2022-11-14T01:41:35;56.17;;;37.35;;
66826;SDS011;53727;45.242;19.796;2022-11-14T01:44:02;58.05;;;38.20;;
66826;SDS011;53727;45.242;19.796;2022-11-14T01:46:29;54.03;;;36.35;;
66826;SDS011;53727;45.242;19.796;2022-11-14T01:49:10;56.38;;;36.58;;
66826;SDS011;53727;45.242;19.796;2022-11-14T01:54:20;60.42;;;42.88;;
66826;SDS011;53727;45.242;19.796;2022-11-14T01:56:48;59.03;;;38.72;;
66826;SDS011;53727;45.242;19.796;2022-11-14T01:59:17;54.92;;;36.45;;
66826;SDS011;53727;45.242;19.796;2022-11-14T02:01:47;52.25;;;36.85;;
66826;SDS011;53727;45.242;19.796;2022-11-14T02:04:16;53.38;;;36.38;;
66826;SDS011;53727;45.242;19.796;2022-11-14T02:06:54;53.30;;;37.38;;
66826;SDS011;53727;45.242;19.796;2022-11-14T02:09:22;55.63;;;37.55;;
66826;SDS011;53727;45.242;19.796;2022-11-14T02:11:48;61.45;;;39.55;;
66826;SDS011;53727;45.242;19.796;2022-11-14T02:14:15;64.20;;;38.30;;
66826;SDS011;53727;45.242;19.796;2022-11-14T02:16:41;58.65;;;37.20;;
66826;SDS011;53727;45.242;19.796;2022-11-14T02:19:08;57.65;;;39.55;;
66826;SDS011;53727;45.242;19.796;2022-11-14T02:21:34;57.55;;;37.60;;
66826;SDS011;53727;45.242;19.796;2022-11-14T02:24:00;62.25;;;40.60;;
66826;SDS011;53727;45.242;19.796;2022-11-14T02:26:26;59.13;;;39.92;;
66826;SDS011;53727;45.242;19.796;2022-11-14T02:28:53;69.47;;;42.47;;
66826;SDS011;53727;45.242;19.796;2022-11-14T02:31:20;62.75;;;40.38;;
66826;SDS011;53727;45.242;19.796;2022-11-14T02:33:46;57.30;;;37.22;;
66826;SDS011;53727;45.242;19.796;2022-11-14T02:36:12;52.25;;;36.08;;
66826;SDS011;53727;45.242;19.796;2022-11-14T02:38:38;58.13;;;39.25;;
66826;SDS011;53727;45.242;19.796;2022-11-14T02:41:04;56.80;;;37.25;;
66826;SDS011;53727;45.242;19.796;2022-11-14T02:43:30;51.65;;;37.67;;
66826;SDS011;53727;45.242;19.796;2022-11-14T02:45:56;59.08;;;39.67;;
66826;SDS011;53727;45.242;19.796;2022-11-14T02:48:22;56.33;;;37.90;;
66826;SDS011;53727;45.242;19.796;2022-11-14T02:50:48;53.50;;;36.55;;
66826;SDS011;53727;45.242;19.796;2022-11-14T02:53:14;53.58;;;36.50;;
66826;SDS011;53727;45.242;19.796;2022-11-14T02:55:39;62.88;;;39.38;;
66826;SDS011;53727;45.242;19.796;2022-11-14T02:58:05;50.60;;;35.63;;
66826;SDS011;53727;45.242;19.796;2022-11-14T03:00:31;53.80;;;36.15;;
66826;SDS011;53727;45.242;19.796;2022-11-14T03:02:57;54.70;;;37.42;;
66826;SDS011;53727;45.242;19.796;2022-11-14T03:05:23;57.28;;;40.65;;
66826;SDS011;53727;45.242;19.796;2022-11-14T03:07:53;57.50;;;39.60;;
66826;SDS011;53727;45.242;19.796;2022-11-14T03:10:19;55.58;;;36.85;;
66826;SDS011;53727;45.242;19.796;2022-11-14T03:12:46;57.38;;;34.45;;
66826;SDS011;53727;45.242;19.796;2022-11-14T03:15:12;51.45;;;35.28;;
66826;SDS011;53727;45.242;19.796;2022-11-14T03:17:38;57.17;;;37.25;;
66826;SDS011;53727;45.242;19.796;2022-11-14T03:20:04;49.65;;;36.22;;
66826;SDS011;53727;45.242;19.796;2022-11-14T03:22:30;56.97;;;36.33;;
66826;SDS011;53727;45.242;19.796;2022-11-14T03:24:56;57.47;;;37.50;;
66826;SDS011;53727;45.242;19.796;2022-11-14T03:27:22;54.28;;;35.53;;
66826;SDS011;53727;45.242;19.796;2022-11-14T03:29:48;55.20;;;35.53;;
66826;SDS011;53727;45.242;19.796;2022-11-14T03:32:13;56.58;;;37.75;;
66826;SDS011;53727;45.242;19.796;2022-11-14T03:34:39;64.13;;;43.75;;
66826;SDS011;53727;45.242;19.796;2022-11-14T03:37:05;68.68;;;46.95;;
66826;SDS011;53727;45.242;19.796;2022-11-14T03:39:31;68.25;;;47.38;;
66826;SDS011;53727;45.242;19.796;2022-11-14T03:41:57;72.63;;;49.70;;
66826;SDS011;53727;45.242;19.796;2022-11-14T03:44:22;63.88;;;44.30;;
66826;SDS011;53727;45.242;19.796;2022-11-14T03:46:49;62.92;;;37.65;;
66826;SDS011;53727;45.242;19.796;2022-11-14T03:49:16;62.20;;;41.92;;
66826;SDS011;53727;45.242;19.796;2022-11-14T03:51:42;69.03;;;45.13;;
66826;SDS011;53727;45.242;19.796;2022-11-14T03:54:07;66.50;;;46.38;;
66826;SDS011;53727;45.242;19.796;2022-11-14T03:56:33;65.82;;;43.35;;
66826;SDS011;53727;45.242;19.796;2022-11-14T03:58:59;80.53;;;52.17;;
66826;SDS011;53727;45.242;19.796;2022-11-14T04:01:24;76.13;;;50.65;;
66826;SDS011;53727;45.242;19.796;2022-11-14T04:03:51;64.40;;;44.22;;
66826;SDS011;53727;45.242;19.796;2022-11-14T04:06:17;56.33;;;39.15;;
66826;SDS011;53727;45.242;19.796;2022-11-14T04:08:43;57.10;;;39.83;;
66826;SDS011;53727;45.242;19.796;2022-11-14T04:11:08;48.17;;;34.47;;
66826;SDS011;53727;45.242;19.796;2022-11-14T04:13:34;51.42;;;36.17;;
66826;SDS011;53727;45.242;19.796;2022-11-14T04:16:00;47.60;;;33.38;;
66826;SDS011;53727;45.242;19.796;2022-11-14T04:18:26;49.97;;;34.13;;
66826;SDS011;53727;45.242;19.796;2022-11-14T04:20:52;46.22;;;32.35;;
66826;SDS011;53727;45.242;19.796;2022-11-14T04:23:18;53.20;;;36.38;;
66826;SDS011;53727;45.242;19.796;2022-11-14T04:25:44;52.58;;;38.47;;
66826;SDS011;53727;45.242;19.796;2022-11-14T04:28:10;51.20;;;37.05;;
66826;SDS011;53727;45.242;19.796;2022-11-14T04:30:37;52.15;;;35.92;;
66826;SDS011;53727;45.242;19.796;2022-11-14T04:33:03;52.13;;;36.63;;
66826;SDS011;53727;45.242;19.796;2022-11-14T04:35:29;55.78;;;40.35;;
66826;SDS011;53727;45.242;19.796;2022-11-14T04:37:55;53.35;;;38.13;;
66826;SDS011;53727;45.242;19.796;2022-11-14T04:40:21;60.40;;;40.95;;
66826;SDS011;53727;45.242;19.796;2022-11-14T04:42:47;57.95;;;39.40;;
66826;SDS011;53727;45.242;19.796;2022-11-14T04:45:13;54.35;;;40.03;;
66826;SDS011;53727;45.242;19.796;2022-11-14T04:47:42;59.40;;;41.03;;
66826;SDS011;53727;45.242;19.796;2022-11-14T04:50:08;61.30;;;41.40;;
66826;SDS011;53727;45.242;19.796;2022-11-14T04:52:34;61.92;;;43.13;;
66826;SDS011;53727;45.242;19.796;2022-11-14T04:55:00;65.55;;;45.13;;
66826;SDS011;53727;45.242;19.796;2022-11-14T04:57:26;70.22;;;47.30;;
66826;SDS011;53727;45.242;19.796;2022-11-14T04:59:51;93.32;;;52.67;;
66826;SDS011;53727;45.242;19.796;2022-11-14T05:02:17;72.47;;;46.80;;
66826;SDS011;53727;45.242;19.796;2022-11-14T05:04:43;104.20;;;55.33;;
66826;SDS011;53727;45.242;19.796;2022-11-14T05:07:10;129.93;;;64.72;;
66826;SDS011;53727;45.242;19.796;2022-11-14T05:09:35;85.30;;;48.78;;
66826;SDS011;53727;45.242;19.796;2022-11-14T05:12:02;78.28;;;48.83;;
66826;SDS011;53727;45.242;19.796;2022-11-14T05:14:28;70.43;;;44.35;;
66826;SDS011;53727;45.242;19.796;2022-11-14T05:16:55;55.60;;;39.17;;
66826;SDS011;53727;45.242;19.796;2022-11-14T05:19:21;72.25;;;39.97;;
66826;SDS011;53727;45.242;19.796;2022-11-14T05:21:47;63.47;;;37.05;;
66826;SDS011;53727;45.242;19.796;2022-11-14T05:24:13;58.08;;;36.20;;
66826;SDS011;53727;45.242;19.796;2022-11-14T05:26:39;58.35;;;35.85;;
66826;SDS011;53727;45.242;19.796;2022-11-14T05:29:05;63.50;;;36.58;;
66826;SDS011;53727;45.242;19.796;2022-11-14T05:31:31;51.13;;;33.05;;
66826;SDS011;53727;45.242;19.796;2022-11-14T05:33:57;67.97;;;35.05;;
66826;SDS011;53727;45.242;19.796;2022-11-14T05:36:22;63.42;;;35.60;;
66826;SDS011;53727;45.242;19.796;2022-11-14T05:38:48;64.05;;;33.78;;
66826;SDS011;53727;45.242;19.796;2022-11-14T05:41:15;59.72;;;34.28;;
66826;SDS011;53727;45.242;19.796;2022-11-14T05:43:42;59.03;;;35.60;;
66826;SDS011;53727;45.242;19.796;2022-11-14T05:46:09;56.28;;;36.10;;
66826;SDS011;53727;45.242;19.796;2022-11-14T05:48:36;55.42;;;34.40;;
66826;SDS011;53727;45.242;19.796;2022-11-14T05:51:03;54.28;;;33.47;;
66826;SDS011;53727;45.242;19.796;2022-11-14T05:53:30;48.40;;;31.50;;
66826;SDS011;53727;45.242;19.796;2022-11-14T05:56:03;48.95;;;31.70;;
66826;SDS011;53727;45.242;19.796;2022-11-14T05:58:30;53.80;;;31.47;;
66826;SDS011;53727;45.242;19.796;2022-11-14T06:01:04;47.95;;;30.95;;
66826;SDS011;53727;45.242;19.796;2022-11-14T06:03:34;48.90;;;32.75;;
66826;SDS011;53727;45.242;19.796;2022-11-14T06:06:02;50.85;;;33.22;;
66826;SDS011;53727;45.242;19.796;2022-11-14T06:08:30;55.55;;;31.58;;
66826;SDS011;53727;45.242;19.796;2022-11-14T06:11:00;47.88;;;32.05;;
66826;SDS011;53727;45.242;19.796;2022-11-14T06:13:27;45.25;;;30.15;;
66826;SDS011;53727;45.242;19.796;2022-11-14T06:15:57;53.67;;;32.10;;
66826;SDS011;53727;45.242;19.796;2022-11-14T06:18:25;49.33;;;31.92;;
66826;SDS011;53727;45.242;19.796;2022-11-14T06:20:50;52.38;;;33.92;;
66826;SDS011;53727;45.242;19.796;2022-11-14T06:23:16;66.20;;;37.45;;
66826;SDS011;53727;45.242;19.796;2022-11-14T06:25:42;63.65;;;41.15;;
66826;SDS011;53727;45.242;19.796;2022-11-14T06:28:07;64.43;;;41.35;;
66826;SDS011;53727;45.242;19.796;2022-11-14T06:30:33;70.93;;;45.97;;
66826;SDS011;53727;45.242;19.796;2022-11-14T06:32:59;125.70;;;98.15;;
66826;SDS011;53727;45.242;19.796;2022-11-14T06:35:25;111.65;;;86.47;;
66826;SDS011;53727;45.242;19.796;2022-11-14T06:37:51;74.00;;;52.97;;
66826;SDS011;53727;45.242;19.796;2022-11-14T06:40:17;66.40;;;43.38;;
66826;SDS011;53727;45.242;19.796;2022-11-14T06:42:43;73.68;;;46.65;;
66826;SDS011;53727;45.242;19.796;2022-11-14T06:45:09;55.67;;;36.55;;
66826;SDS011;53727;45.242;19.796;2022-11-14T06:47:35;52.85;;;36.78;;
66826;SDS011;53727;45.242;19.796;2022-11-14T06:50:00;61.92;;;35.42;;
66826;SDS011;53727;45.242;19.796;2022-11-14T06:52:26;62.00;;;35.55;;
66826;SDS011;53727;45.242;19.796;2022-11-14T06:54:52;70.63;;;41.67;;
66826;SDS011;53727;45.242;19.796;2022-11-14T06:57:17;106.05;;;53.25;;
66826;SDS011;53727;45.242;19.796;2022-11-14T06:59:43;95.20;;;45.95;;
66826;SDS011;53727;45.242;19.796;2022-11-14T07:02:12;83.78;;;50.47;;
66826;SDS011;53727;45.242;19.796;2022-11-14T07:04:38;73.03;;;43.33;;
66826;SDS011;53727;45.242;19.796;2022-11-14T07:07:04;68.53;;;40.83;;
66826;SDS011;53727;45.242;19.796;2022-11-14T07:09:29;71.68;;;42.58;;
66826;SDS011;53727;45.242;19.796;2022-11-14T07:11:55;70.60;;;42.35;;
66826;SDS011;53727;45.242;19.796;2022-11-14T07:14:21;66.45;;;41.45;;
66826;SDS011;53727;45.242;19.796;2022-11-14T07:16:46;68.30;;;40.33;;
66826;SDS011;53727;45.242;19.796;2022-11-14T07:19:12;68.28;;;42.72;;
66826;SDS011;53727;45.242;19.796;2022-11-14T07:21:38;80.38;;;40.95;;
66826;SDS011;53727;45.242;19.796;2022-11-14T07:24:04;64.03;;;39.10;;
66826;SDS011;53727;45.242;19.796;2022-11-14T07:26:30;66.88;;;37.95;;
66826;SDS011;53727;45.242;19.796;2022-11-14T07:28:55;62.13;;;38.30;;
66826;SDS011;53727;45.242;19.796;2022-11-14T07:31:21;55.55;;;35.45;;
66826;SDS011;53727;45.242;19.796;2022-11-14T07:33:47;61.85;;;36.95;;
66826;SDS011;53727;45.242;19.796;2022-11-14T07:36:13;53.92;;;37.22;;
66826;SDS011;53727;45.242;19.796;2022-11-14T07:38:40;55.35;;;35.13;;
66826;SDS011;53727;45.242;19.796;2022-11-14T07:41:07;59.08;;;37.78;;
66826;SDS011;53727;45.242;19.796;2022-11-14T07:43:35;55.05;;;35.97;;
66826;SDS011;53727;45.242;19.796;2022-11-14T07:46:02;60.25;;;38.35;;
66826;SDS011;53727;45.242;19.796;2022-11-14T07:48:33;60.53;;;40.22;;
66826;SDS011;53727;45.242;19.796;2022-11-14T07:51:02;58.47;;;39.45;;
66826;SDS011;53727;45.242;19.796;2022-11-14T07:53:30;58.97;;;38.97;;
66826;SDS011;53727;45.242;19.796;2022-11-14T07:55:56;56.95;;;36.53;;
66826;SDS011;53727;45.242;19.796;2022-11-14T07:58:27;55.20;;;37.35;;
66826;SDS011;53727;45.242;19.796;2022-11-14T08:00:52;51.42;;;35.47;;
66826;SDS011;53727;45.242;19.796;2022-11-14T08:03:18;48.47;;;34.47;;
66826;SDS011;53727;45.242;19.796;2022-11-14T08:05:44;47.30;;;32.55;;
66826;SDS011;53727;45.242;19.796;2022-11-14T08:08:10;51.05;;;31.23;;
66826;SDS011;53727;45.242;19.796;2022-11-14T08:10:35;61.10;;;39.83;;
66826;SDS011;53727;45.242;19.796;2022-11-14T08:13:03;62.80;;;39.03;;
66826;SDS011;53727;45.242;19.796;2022-11-14T08:15:30;49.63;;;33.35;;
66826;SDS011;53727;45.242;19.796;2022-11-14T08:17:56;53.78;;;35.22;;
66826;SDS011;53727;45.242;19.796;2022-11-14T08:20:23;52.70;;;34.88;;
66826;SDS011;53727;45.242;19.796;2022-11-14T08:22:50;44.70;;;30.75;;
66826;SDS011;53727;45.242;19.796;2022-11-14T08:25:15;51.22;;;32.63;;
66826;SDS011;53727;45.242;19.796;2022-11-14T08:27:41;45.03;;;31.13;;
66826;SDS011;53727;45.242;19.796;2022-11-14T08:30:07;50.45;;;32.47;;
66826;SDS011;53727;45.242;19.796;2022-11-14T08:32:33;44.83;;;31.75;;
66826;SDS011;53727;45.242;19.796;2022-11-14T08:34:59;42.60;;;30.73;;
66826;SDS011;53727;45.242;19.796;2022-11-14T08:37:25;42.30;;;31.15;;
66826;SDS011;53727;45.242;19.796;2022-11-14T08:39:50;44.10;;;30.50;;
66826;SDS011;53727;45.242;19.796;2022-11-14T08:42:16;40.08;;;30.80;;
66826;SDS011;53727;45.242;19.796;2022-11-14T08:44:42;44.28;;;31.67;;
66826;SDS011;53727;45.242;19.796;2022-11-14T08:47:07;45.17;;;31.38;;
66826;SDS011;53727;45.242;19.796;2022-11-14T08:49:33;41.67;;;29.98;;
66826;SDS011;53727;45.242;19.796;2022-11-14T08:51:59;39.05;;;31.05;;
66826;SDS011;53727;45.242;19.796;2022-11-14T08:54:25;40.15;;;30.60;;
66826;SDS011;53727;45.242;19.796;2022-11-14T08:56:51;43.95;;;29.98;;
66826;SDS011;53727;45.242;19.796;2022-11-14T08:59:17;45.35;;;31.77;;
66826;SDS011;53727;45.242;19.796;2022-11-14T09:01:43;42.72;;;31.08;;
66826;SDS011;53727;45.242;19.796;2022-11-14T09:04:09;52.50;;;33.45;;
66826;SDS011;53727;45.242;19.796;2022-11-14T09:06:34;46.42;;;32.90;;
66826;SDS011;53727;45.242;19.796;2022-11-14T09:09:00;46.67;;;32.97;;
66826;SDS011;53727;45.242;19.796;2022-11-14T09:11:26;43.13;;;30.42;;
66826;SDS011;53727;45.242;19.796;2022-11-14T09:13:51;52.15;;;32.38;;
66826;SDS011;53727;45.242;19.796;2022-11-14T09:16:17;47.78;;;32.40;;
66826;SDS011;53727;45.242;19.796;2022-11-14T09:18:42;56.83;;;34.35;;
66826;SDS011;53727;45.242;19.796;2022-11-14T09:21:09;71.63;;;35.35;;
66826;SDS011;53727;45.242;19.796;2022-11-14T09:23:35;51.80;;;35.58;;
66826;SDS011;53727;45.242;19.796;2022-11-14T09:26:02;48.53;;;36.03;;
66826;SDS011;53727;45.242;19.796;2022-11-14T09:28:29;49.55;;;36.20;;
66826;SDS011;53727;45.242;19.796;2022-11-14T09:31:01;47.17;;;36.85;;
66826;SDS011;53727;45.242;19.796;2022-11-14T09:33:28;52.53;;;38.10;;
66826;SDS011;53727;45.242;19.796;2022-11-14T09:35:57;53.70;;;39.63;;
66826;SDS011;53727;45.242;19.796;2022-11-14T09:38:24;55.92;;;36.85;;
66826;SDS011;53727;45.242;19.796;2022-11-14T09:45:49;51.45;;;37.42;;
66826;SDS011;53727;45.242;19.796;2022-11-14T09:48:17;55.78;;;40.03;;
66826;SDS011;53727;45.242;19.796;2022-11-14T09:50:50;55.72;;;38.47;;
66826;SDS011;53727;45.242;19.796;2022-11-14T09:56:11;62.92;;;39.42;;
66826;SDS011;53727;45.242;19.796;2022-11-14T09:58:38;58.10;;;39.50;;
66826;SDS011;53727;45.242;19.796;2022-11-14T10:01:07;51.28;;;38.70;;
66826;SDS011;53727;45.242;19.796;2022-11-14T10:06:33;65.22;;;43.10;;
66826;SDS011;53727;45.242;19.796;2022-11-14T10:09:12;77.45;;;48.65;;
66826;SDS011;53727;45.242;19.796;2022-11-14T10:11:47;66.05;;;50.38;;
66826;SDS011;53727;45.242;19.796;2022-11-14T10:19:26;60.08;;;42.05;;
66826;SDS011;53727;45.242;19.796;2022-11-14T10:27:18;60.88;;;43.35;;
66826;SDS011;53727;45.242;19.796;2022-11-14T10:34:53;56.53;;;41.45;;
66826;SDS011;53727;45.242;19.796;2022-11-14T10:37:24;58.20;;;40.15;;
66826;SDS011;53727;45.242;19.796;2022-11-14T10:39:53;64.50;;;39.33;;
66826;SDS011;53727;45.242;19.796;2022-11-14T10:42:30;51.65;;;38.67;;
66826;SDS011;53727;45.242;19.796;2022-11-14T10:45:00;51.08;;;37.10;;
66826;SDS011;53727;45.242;19.796;2022-11-14T10:47:26;50.03;;;30.98;;
66826;SDS011;53727;45.242;19.796;2022-11-14T10:49:54;46.38;;;30.63;;
66826;SDS011;53727;45.242;19.796;2022-11-14T10:52:27;71.20;;;32.97;;
66826;SDS011;53727;45.242;19.796;2022-11-14T10:54:57;36.05;;;29.77;;
66826;SDS011;53727;45.242;19.796;2022-11-14T10:57:24;39.15;;;29.23;;
66826;SDS011;53727;45.242;19.796;2022-11-14T10:59:51;64.57;;;30.17;;
66826;SDS011;53727;45.242;19.796;2022-11-14T11:02:19;39.17;;;28.98;;
66826;SDS011;53727;45.242;19.796;2022-11-14T11:04:45;37.92;;;28.35;;
66826;SDS011;53727;45.242;19.796;2022-11-14T11:10:00;43.78;;;26.65;;
66826;SDS011;53727;45.242;19.796;2022-11-14T11:12:46;37.40;;;25.30;;
66826;SDS011;53727;45.242;19.796;2022-11-14T11:17:45;47.88;;;29.17;;
66826;SDS011;53727;45.242;19.796;2022-11-14T11:20:28;43.10;;;28.95;;
66826;SDS011;53727;45.242;19.796;2022-11-14T11:25:57;37.63;;;28.00;;
66826;SDS011;53727;45.242;19.796;2022-11-14T11:28:42;43.05;;;26.92;;
66826;SDS011;53727;45.242;19.796;2022-11-14T11:31:24;42.28;;;27.25;;
66826;SDS011;53727;45.242;19.796;2022-11-14T11:33:50;50.97;;;27.90;;
66826;SDS011;53727;45.242;19.796;2022-11-14T11:36:19;34.40;;;26.85;;
66826;SDS011;53727;45.242;19.796;2022-11-14T11:38:47;38.00;;;26.80;;
66826;SDS011;53727;45.242;19.796;2022-11-14T11:41:24;83.43;;;28.63;;
66826;SDS011;53727;45.242;19.796;2022-11-14T11:43:55;37.40;;;27.17;;
66826;SDS011;53727;45.242;19.796;2022-11-14T11:46:37;37.03;;;27.35;;
66826;SDS011;53727;45.242;19.796;2022-11-14T11:49:17;36.80;;;27.02;;
66826;SDS011;53727;45.242;19.796;2022-11-14T11:51:45;110.22;;;31.45;;
66826;SDS011;53727;45.242;19.796;2022-11-14T11:54:16;71.28;;;31.00;;
66826;SDS011;53727;45.242;19.796;2022-11-14T11:56:44;56.40;;;30.83;;
66826;SDS011;53727;45.242;19.796;2022-11-14T11:59:18;35.03;;;28.08;;
66826;SDS011;53727;45.242;19.796;2022-11-14T12:01:46;47.38;;;31.77;;
66826;SDS011;53727;45.242;19.796;2022-11-14T12:04:12;50.13;;;31.85;;
66826;SDS011;53727;45.242;19.796;2022-11-14T12:06:44;43.05;;;31.77;;
66826;SDS011;53727;45.242;19.796;2022-11-14T12:09:13;50.83;;;29.85;;
66826;SDS011;53727;45.242;19.796;2022-11-14T12:11:41;43.20;;;31.85;;
66826;SDS011;53727;45.242;19.796;2022-11-14T12:22:05;39.22;;;30.30;;
66826;SDS011;53727;45.242;19.796;2022-11-14T12:32:43;36.13;;;26.90;;
66826;SDS011;53727;45.242;19.796;2022-11-14T12:35:14;33.42;;;26.65;;
66826;SDS011;53727;45.242;19.796;2022-11-14T12:37:42;72.60;;;28.25;;
66826;SDS011;53727;45.242;19.796;2022-11-14T12:42:54;313.38;;;38.08;;
66826;SDS011;53727;45.242;19.796;2022-11-14T12:50:40;41.78;;;25.50;;
66826;SDS011;53727;45.242;19.796;2022-11-14T12:56:12;46.25;;;26.42;;
66826;SDS011;53727;45.242;19.796;2022-11-14T13:11:41;44.10;;;27.95;;
66826;SDS011;53727;45.242;19.796;2022-11-14T13:14:27;38.17;;;27.83;;
66826;SDS011;53727;45.242;19.796;2022-11-14T13:19:57;44.58;;;28.33;;
66826;SDS011;53727;45.242;19.796;2022-11-14T13:22:42;34.13;;;28.40;;
66826;SDS011;53727;45.242;19.796;2022-11-14T13:27:35;52.63;;;29.63;;
66826;SDS011;53727;45.242;19.796;2022-11-14T13:30:04;41.05;;;24.77;;
66826;SDS011;53727;45.242;19.796;2022-11-14T13:40:22;32.90;;;17.58;;
66826;SDS011;53727;45.242;19.796;2022-11-14T13:51:00;41.38;;;23.75;;
66826;SDS011;53727;45.242;19.796;2022-11-14T13:53:29;25.15;;;21.20;;
66826;SDS011;53727;45.242;19.796;2022-11-14T13:56:00;35.13;;;22.65;;
66826;SDS011;53727;45.242;19.796;2022-11-14T14:03:49;56.15;;;22.15;;
66826;SDS011;53727;45.242;19.796;2022-11-14T14:20:17;46.08;;;22.70;;
66826;SDS011;53727;45.242;19.796;2022-11-14T14:25:50;224.95;;;31.15;;
66826;SDS011;53727;45.242;19.796;2022-11-14T14:31:39;44.83;;;26.30;;
66826;SDS011;53727;45.242;19.796;2022-11-14T14:36:55;60.97;;;26.85;;
66826;SDS011;53727;45.242;19.796;2022-11-14T14:39:25;104.07;;;27.77;;
66826;SDS011;53727;45.242;19.796;2022-11-14T14:41:56;46.92;;;25.92;;
66826;SDS011;53727;45.242;19.796;2022-11-14T14:49:41;60.42;;;26.13;;
66826;SDS011;53727;45.242;19.796;2022-11-14T14:54:57;64.57;;;26.23;;
66826;SDS011;53727;45.242;19.796;2022-11-14T14:57:26;48.08;;;26.63;;
66826;SDS011;53727;45.242;19.796;2022-11-14T14:59:59;54.97;;;26.20;;
66826;SDS011;53727;45.242;19.796;2022-11-14T15:02:25;89.78;;;30.52;;
66826;SDS011;53727;45.242;19.796;2022-11-14T15:04:51;38.15;;;24.95;;
66826;SDS011;53727;45.242;19.796;2022-11-14T15:07:18;58.67;;;27.52;;
66826;SDS011;53727;45.242;19.796;2022-11-14T15:10:45;94.00;;;31.08;;
66826;SDS011;53727;45.242;19.796;2022-11-14T15:12:40;82.78;;;33.50;;
66826;SDS011;53727;45.242;19.796;2022-11-14T15:15:11;76.65;;;35.40;;
66826;SDS011;53727;45.242;19.796;2022-11-14T15:17:37;119.15;;;36.80;;
66826;SDS011;53727;45.242;19.796;2022-11-14T15:20:03;88.07;;;34.22;;
66826;SDS011;53727;45.242;19.796;2022-11-14T15:22:53;60.22;;;33.15;;
66826;SDS011;53727;45.242;19.796;2022-11-14T15:25:26;58.47;;;34.65;;
66826;SDS011;53727;45.242;19.796;2022-11-14T15:27:52;68.80;;;45.70;;
66826;SDS011;53727;45.242;19.796;2022-11-14T15:30:23;83.07;;;47.22;;
66826;SDS011;53727;45.242;19.796;2022-11-14T15:32:55;68.97;;;46.65;;
66826;SDS011;53727;45.242;19.796;2022-11-14T15:35:24;82.80;;;51.63;;
66826;SDS011;53727;45.242;19.796;2022-11-14T15:38:17;71.88;;;49.05;;
66826;SDS011;53727;45.242;19.796;2022-11-14T15:41:07;72.57;;;48.50;;
66826;SDS011;53727;45.242;19.796;2022-11-14T15:51:36;104.85;;;61.15;;
66826;SDS011;53727;45.242;19.796;2022-11-14T15:54:23;86.60;;;57.00;;
66826;SDS011;53727;45.242;19.796;2022-11-14T15:56:57;88.22;;;47.35;;
66826;SDS011;53727;45.242;19.796;2022-11-14T15:59:25;100.05;;;42.35;;
66826;SDS011;53727;45.242;19.796;2022-11-14T16:01:53;91.60;;;48.78;;
66826;SDS011;53727;45.242;19.796;2022-11-14T16:04:24;78.20;;;47.13;;
66826;SDS011;53727;45.242;19.796;2022-11-14T16:06:54;69.68;;;44.97;;
66826;SDS011;53727;45.242;19.796;2022-11-14T16:09:20;79.18;;;45.08;;
66826;SDS011;53727;45.242;19.796;2022-11-14T16:11:46;79.07;;;48.35;;
66826;SDS011;53727;45.242;19.796;2022-11-14T16:14:12;80.07;;;49.15;;
66826;SDS011;53727;45.242;19.796;2022-11-14T16:16:37;90.90;;;51.03;;
66826;SDS011;53727;45.242;19.796;2022-11-14T16:19:03;84.55;;;50.22;;
66826;SDS011;53727;45.242;19.796;2022-11-14T16:21:30;83.25;;;44.60;;
66826;SDS011;53727;45.242;19.796;2022-11-14T16:23:56;77.22;;;45.53;;
66826;SDS011;53727;45.242;19.796;2022-11-14T16:26:22;69.03;;;44.10;;
66826;SDS011;53727;45.242;19.796;2022-11-14T16:28:50;67.32;;;44.30;;
66826;SDS011;53727;45.242;19.796;2022-11-14T16:31:16;64.40;;;44.17;;
66826;SDS011;53727;45.242;19.796;2022-11-14T16:33:42;99.30;;;48.67;;
66826;SDS011;53727;45.242;19.796;2022-11-14T16:36:09;69.18;;;45.88;;